createdAt,value
2022-12-04T00:02:08.695Z,101833.31
2022-12-04T00:04:35.162Z,101845.56
2022-12-04T00:07:01.775Z,101844.63
2022-12-04T00:09:28.208Z,101836.00
2022-12-04T00:11:54.756Z,101835.06
2022-12-04T00:14:21.194Z,101835.16
2022-12-04T00:16:47.664Z,101837.81
2022-12-04T00:19:14.122Z,101833.31
2022-12-04T00:21:40.570Z,101835.06
2022-12-04T00:24:07.270Z,101839.41
2022-12-04T00:26:34.062Z,101841.13
2022-12-04T00:29:00.729Z,101840.38
2022-12-04T00:31:29.646Z,101841.22
2022-12-04T00:33:56.165Z,101844.78
2022-12-04T00:36:25.407Z,101847.28
2022-12-04T00:38:51.864Z,101845.66
2022-12-04T00:41:22.142Z,101836.97
2022-12-04T00:43:48.770Z,101843.03
2022-12-04T00:46:15.976Z,101838.66
2022-12-04T00:48:43.497Z,101843.91
2022-12-04T00:51:13.738Z,101848.28
2022-12-04T00:53:40.651Z,101844.81
2022-12-04T00:56:10.274Z,101840.34
2022-12-04T00:58:36.755Z,101837.75
2022-12-04T01:01:05.787Z,101845.63
2022-12-04T01:03:32.313Z,101823.78
2022-12-04T01:05:59.207Z,101838.63
2022-12-04T01:08:25.909Z,101829.00
2022-12-04T01:10:52.334Z,101836.91
2022-12-04T01:13:18.797Z,101836.88
2022-12-04T01:15:47.263Z,101836.00
2022-12-04T01:18:14.481Z,101826.47
2022-12-04T01:20:47.754Z,101832.56
2022-12-04T01:23:14.258Z,101829.97
2022-12-04T01:25:40.707Z,101824.78
2022-12-04T01:28:07.118Z,101827.38
2022-12-04T01:30:33.551Z,101827.34
2022-12-04T01:32:59.983Z,101825.56
2022-12-04T01:35:26.365Z,101826.50
2022-12-04T01:37:52.780Z,101819.50
2022-12-04T01:40:20.053Z,101819.50
2022-12-04T01:42:46.446Z,101824.69
2022-12-04T01:45:31.136Z,101827.28
2022-12-04T01:48:09.250Z,101829.06
2022-12-04T01:50:35.853Z,101819.53
2022-12-04T01:53:02.298Z,101834.34
2022-12-04T01:55:30.853Z,101823.88
2022-12-04T01:57:58.556Z,101830.81
2022-12-04T02:00:25.164Z,101822.09
2022-12-04T02:02:51.668Z,101829.94
2022-12-04T02:05:21.192Z,101821.28
2022-12-04T02:07:50.784Z,101816.88
2022-12-04T02:10:24.273Z,101821.22
2022-12-04T02:13:07.431Z,101820.34
2022-12-04T02:15:45.756Z,101811.59
2022-12-04T02:18:27.407Z,101816.75
2022-12-04T02:21:12.167Z,101814.19
2022-12-04T02:23:44.610Z,101809.81
2022-12-04T02:26:49.105Z,101805.47
2022-12-04T02:29:18.438Z,101805.47
2022-12-04T02:31:51.422Z,101792.47
2022-12-04T02:34:33.159Z,101802.03
2022-12-04T02:37:08.694Z,101804.50
2022-12-04T02:39:44.429Z,101808.00
2022-12-04T02:42:14.542Z,101797.72
2022-12-04T02:44:53.496Z,101802.00
2022-12-04T02:47:22.686Z,101808.13
2022-12-04T02:50:17.863Z,101808.09
2022-12-04T02:52:49.265Z,101801.13
2022-12-04T02:55:29.656Z,101804.47
2022-12-04T02:58:02.349Z,101805.31
2022-12-04T03:00:30.283Z,101806.28
2022-12-04T03:03:02.527Z,101805.34
2022-12-04T03:05:38.735Z,101799.22
2022-12-04T03:08:11.120Z,101808.84
2022-12-04T03:10:48.790Z,101802.84
2022-12-04T03:13:40.943Z,101801.91
2022-12-04T03:16:14.254Z,101801.13
2022-12-04T03:18:58.934Z,101810.72
2022-12-04T03:21:29.993Z,101805.47
2022-12-04T03:24:02.853Z,101810.69
2022-12-04T03:26:37.084Z,101804.59
2022-12-04T03:29:21.100Z,101818.50
2022-12-04T03:32:04.671Z,101819.25
2022-12-04T03:34:57.886Z,101815.78
2022-12-04T03:37:34.070Z,101814.97
2022-12-04T03:40:38.057Z,101822.75
2022-12-04T03:43:13.354Z,101827.03
2022-12-04T03:45:45.845Z,101835.81
2022-12-04T03:48:41.754Z,101823.53
2022-12-04T03:51:29.662Z,101823.41
2022-12-04T03:54:02.532Z,101833.13
2022-12-04T03:56:36.630Z,101822.72
2022-12-04T03:59:15.286Z,101826.22
2022-12-04T04:01:48.714Z,101828.69
2022-12-04T04:04:22.977Z,101831.41
2022-12-04T04:06:55.381Z,101827.91
2022-12-04T04:09:25.421Z,101826.25
2022-12-04T04:12:00.513Z,101821.81
2022-12-04T04:14:57.968Z,101820.09
2022-12-04T04:17:48.594Z,101818.25
2022-12-04T04:20:39.752Z,101813.91
2022-12-04T04:23:29.879Z,101815.78
2022-12-04T04:26:00.526Z,101808.72
2022-12-04T04:28:39.285Z,101811.28
2022-12-04T04:31:41.015Z,101807.81
2022-12-04T04:34:35.387Z,101809.50
2022-12-04T04:37:19.243Z,101811.28
2022-12-04T04:39:56.535Z,101802.56
2022-12-04T04:42:40.396Z,101812.16
2022-12-04T04:45:15.804Z,101810.84
2022-12-04T04:47:50.333Z,101810.09
2022-12-04T04:50:17.915Z,101814.03
2022-12-04T04:52:49.018Z,101815.97
2022-12-04T04:55:17.105Z,101806.59
2022-12-04T04:57:43.563Z,101802.19
2022-12-04T05:00:20.328Z,101794.47
2022-12-04T05:02:48.629Z,101795.47
2022-12-04T05:05:15.052Z,101804.19
2022-12-04T05:07:41.808Z,101807.63
2022-12-04T05:10:09.479Z,101800.63
2022-12-04T05:12:35.895Z,101800.56
2022-12-04T05:15:02.515Z,101800.63
2022-12-04T05:17:28.998Z,101802.50
2022-12-04T05:19:56.785Z,101800.63
2022-12-04T05:22:27.580Z,101807.69
2022-12-04T05:24:54.865Z,101804.19
2022-12-04T05:27:22.414Z,101818.91
2022-12-04T05:29:48.989Z,101820.28
2022-12-04T05:32:15.543Z,101827.50
2022-12-04T05:34:42.166Z,101818.56
2022-12-04T05:37:08.662Z,101830.75
2022-12-04T05:39:35.599Z,101822.00
2022-12-04T05:42:02.013Z,101816.81
2022-12-04T05:44:28.541Z,101820.34
2022-12-04T05:46:55.002Z,101819.53
2022-12-04T05:49:21.435Z,101826.56
2022-12-04T05:51:50.311Z,101834.34
2022-12-04T05:54:17.771Z,101829.97
2022-12-04T05:56:44.609Z,101832.59
2022-12-04T05:59:11.026Z,101829.13
2022-12-04T06:01:37.511Z,101833.50
2022-12-04T06:04:04.079Z,101830.88
2022-12-04T06:06:30.603Z,101831.59
2022-12-04T06:08:59.559Z,101833.44
2022-12-04T06:11:32.241Z,101833.47
2022-12-04T06:14:00.571Z,101831.66
2022-12-04T06:16:28.482Z,101826.22
2022-12-04T06:18:58.759Z,101829.81
2022-12-04T06:21:27.705Z,101828.09
2022-12-04T06:23:54.233Z,101826.34
2022-12-04T06:26:22.315Z,101832.38
2022-12-04T06:28:49.030Z,101831.47
2022-12-04T06:31:18.804Z,101836.75
2022-12-04T06:33:45.436Z,101838.59
2022-12-04T06:36:14.852Z,101836.78
2022-12-04T06:38:42.151Z,101837.53
2022-12-04T06:41:13.381Z,101829.75
2022-12-04T06:43:40.661Z,101842.00
2022-12-04T06:46:10.360Z,101826.25
2022-12-04T06:48:37.407Z,101825.38
2022-12-04T06:51:19.002Z,101822.56
2022-12-04T06:53:45.974Z,101825.97
2022-12-04T06:56:17.849Z,101835.44
2022-12-04T06:58:49.335Z,101835.66
2022-12-04T07:01:18.545Z,101836.56
2022-12-04T07:03:50.992Z,101839.88
2022-12-04T07:06:28.982Z,101846.84
2022-12-04T07:08:59.506Z,101840.78
2022-12-04T07:11:26.576Z,101839.91
2022-12-04T07:13:54.854Z,101842.56
2022-12-04T07:16:23.044Z,101839.94
2022-12-04T07:18:59.117Z,101834.69
2022-12-04T07:21:28.327Z,101832.84
2022-12-04T07:23:57.704Z,101839.88
2022-12-04T07:26:25.431Z,101840.59
2022-12-04T07:28:53.388Z,101841.34
2022-12-04T07:31:22.504Z,101851.91
2022-12-04T07:33:49.960Z,101844.91
2022-12-04T07:36:19.486Z,101842.31
2022-12-04T07:38:47.013Z,101845.66
2022-12-04T07:41:14.382Z,101842.88
2022-12-04T07:43:41.687Z,101845.50
2022-12-04T07:46:12.539Z,101836.56
2022-12-04T07:48:39.089Z,101843.56
2022-12-04T07:51:11.620Z,101846.66
2022-12-04T07:53:38.827Z,101837.56
2022-12-04T07:56:05.990Z,101837.50
2022-12-04T07:58:33.684Z,101840.84
2022-12-04T08:01:06.363Z,101834.03
2022-12-04T08:03:32.874Z,101835.75
2022-12-04T08:06:03.975Z,101837.78
2022-12-04T08:08:30.557Z,101837.31
2022-12-04T08:10:57.854Z,101838.03
2022-12-04T08:13:24.524Z,101837.38
2022-12-04T08:15:51.806Z,101837.38
2022-12-04T08:18:18.354Z,101825.34
2022-12-04T08:20:45.063Z,101842.94
2022-12-04T08:23:11.520Z,101841.44
2022-12-04T08:25:40.213Z,101845.03
2022-12-04T08:28:07.209Z,101835.47
2022-12-04T08:30:34.803Z,101844.25
2022-12-04T08:33:01.718Z,101832.34
2022-12-04T08:35:28.285Z,101845.84
2022-12-04T08:37:54.689Z,101842.06
2022-12-04T08:40:21.109Z,101840.63
2022-12-04T08:42:47.528Z,101853.84
2022-12-04T08:45:14.099Z,101846.31
2022-12-04T08:47:40.545Z,101853.81
2022-12-04T08:50:07.308Z,101850.78
2022-12-04T08:52:33.773Z,101853.41
2022-12-04T08:55:00.204Z,101851.53
2022-12-04T08:57:26.607Z,101843.66
2022-12-04T08:59:53.302Z,101843.00
2022-12-04T09:02:20.456Z,101841.81
2022-12-04T09:04:46.941Z,101843.84
2022-12-04T09:07:13.487Z,101839.81
2022-12-04T09:09:44.937Z,101852.75
2022-12-04T09:12:14.415Z,101853.03
2022-12-04T09:14:40.897Z,101848.31
2022-12-04T09:17:07.282Z,101858.88
2022-12-04T09:19:35.311Z,101856.59
2022-12-04T09:22:01.696Z,101857.56
2022-12-04T09:24:30.383Z,101862.59
2022-12-04T09:26:56.953Z,101853.66
2022-12-04T09:29:23.373Z,101849.50
2022-12-04T09:31:49.766Z,101857.03
2022-12-04T09:34:16.201Z,101854.56
2022-12-04T09:36:42.619Z,101852.88
2022-12-04T09:39:10.259Z,101852.78
2022-12-04T09:41:36.644Z,101853.56
2022-12-04T09:44:10.946Z,101848.84
2022-12-04T09:47:02.184Z,101854.63
2022-12-04T09:49:45.974Z,101852.19
2022-12-04T09:52:47.990Z,101851.59
2022-12-04T09:55:22.493Z,101846.72
2022-12-04T09:57:52.640Z,101853.66
2022-12-04T10:00:21.715Z,101855.25
2022-12-04T10:03:14.541Z,101847.38
2022-12-04T10:06:16.827Z,101842.13
2022-12-04T10:08:46.210Z,101847.91
2022-12-04T10:11:32.268Z,101850.66
2022-12-04T10:14:16.558Z,101855.56
2022-12-04T10:16:52.033Z,101854.72
2022-12-04T10:19:30.077Z,101851.06
2022-12-04T10:22:23.907Z,101844.97
2022-12-04T10:24:56.771Z,101842.38
2022-12-04T10:27:36.219Z,101842.41
2022-12-04T10:30:07.908Z,101846.78
2022-12-04T10:32:35.080Z,101833.81
2022-12-04T10:35:21.991Z,101828.88
2022-12-04T10:37:58.622Z,101836.69
2022-12-04T10:40:51.998Z,101832.56
2022-12-04T10:43:43.048Z,101826.94
2022-12-04T10:46:26.183Z,101830.75
2022-12-04T10:49:14.639Z,101827.22
2022-12-04T10:51:42.884Z,101818.88
2022-12-04T10:54:27.463Z,101824.50
2022-12-04T10:56:57.545Z,101816.03
2022-12-04T10:59:25.356Z,101811.31
2022-12-04T11:02:24.615Z,101821.63
2022-12-04T11:04:56.910Z,101813.44
2022-12-04T11:07:26.749Z,101800.56
2022-12-04T11:09:58.860Z,101806.31
2022-12-04T11:12:25.572Z,101801.56
2022-12-04T11:15:07.817Z,101807.78
2022-12-04T11:17:34.367Z,101803.59
2022-12-04T11:20:02.306Z,101801.38
2022-12-04T11:22:28.778Z,101797.41
2022-12-04T11:24:59.424Z,101791.28
2022-12-04T11:27:33.640Z,101788.81
2022-12-04T11:30:10.175Z,101783.31
2022-12-04T11:32:38.407Z,101781.75
2022-12-04T11:35:23.519Z,101788.69
2022-12-04T11:37:57.948Z,101783.06
2022-12-04T11:40:26.696Z,101790.41
2022-12-04T11:43:06.076Z,101785.91
2022-12-04T11:45:33.172Z,101771.13
2022-12-04T11:48:13.169Z,101763.34
2022-12-04T11:51:04.679Z,101771.88
2022-12-04T11:53:49.722Z,101773.31
2022-12-04T11:56:31.418Z,101772.00
2022-12-04T11:59:10.464Z,101752.97
2022-12-04T12:01:56.305Z,101760.41
2022-12-04T12:04:32.486Z,101761.94
2022-12-04T12:07:14.053Z,101762.03
2022-12-04T12:10:05.394Z,101757.41
2022-12-04T12:13:03.754Z,101757.56
2022-12-04T12:15:58.569Z,101759.91
2022-12-04T12:18:49.683Z,101767.56
2022-12-04T12:21:27.231Z,101764.13
2022-12-04T12:23:59.602Z,101759.19
2022-12-04T12:26:46.033Z,101761.50
2022-12-04T12:29:32.401Z,101762.78
2022-12-04T12:32:04.655Z,101758.22
2022-12-04T12:34:34.099Z,101761.91
2022-12-04T12:37:08.880Z,101751.25
2022-12-04T12:39:53.757Z,101746.94
2022-12-04T12:42:28.779Z,101755.94
2022-12-04T12:45:26.406Z,101749.91
2022-12-04T12:47:56.433Z,101748.75
2022-12-04T12:50:28.926Z,101739.06
2022-12-04T12:53:19.167Z,101760.13
2022-12-04T12:55:54.023Z,101754.25
2022-12-04T12:58:30.785Z,101753.66
2022-12-04T13:01:26.504Z,101751.56
2022-12-04T13:04:28.817Z,101750.66
2022-12-04T13:07:10.085Z,101747.09
2022-12-04T13:09:41.506Z,101738.16
2022-12-04T13:12:14.548Z,101743.00
2022-12-04T13:14:45.931Z,101736.56
2022-12-04T13:17:22.261Z,101732.63
2022-12-04T13:19:55.314Z,101739.13
2022-12-04T13:22:29.851Z,101741.47
2022-12-04T13:25:27.824Z,101730.19
2022-12-04T13:28:06.520Z,101728.72
2022-12-04T13:30:48.494Z,101733.44
2022-12-04T13:33:39.853Z,101728.88
2022-12-04T13:36:29.594Z,101726.88
2022-12-04T13:39:18.086Z,101720.31
2022-12-04T13:41:44.570Z,101722.81
2022-12-04T13:44:31.517Z,101718.38
2022-12-04T13:47:07.664Z,101727.09
2022-12-04T13:49:37.207Z,101726.47
2022-12-04T13:52:19.894Z,101722.94
2022-12-04T13:55:00.387Z,101720.81
2022-12-04T13:57:28.550Z,101717.34
2022-12-04T14:00:23.683Z,101709.63
2022-12-04T14:02:52.843Z,101709.88
2022-12-04T14:05:28.018Z,101721.47
2022-12-04T14:08:07.851Z,101714.06
2022-12-04T14:10:38.414Z,101707.19
2022-12-04T14:13:22.143Z,101709.94
2022-12-04T14:15:49.189Z,101705.78
2022-12-04T14:18:29.738Z,101702.94
2022-12-04T14:21:05.422Z,101701.97
2022-12-04T14:23:39.022Z,101692.72
2022-12-04T14:26:18.538Z,101707.63
2022-12-04T14:28:45.228Z,101694.81
2022-12-04T14:31:23.673Z,101712.19
2022-12-04T14:33:58.395Z,101705.31
2022-12-04T14:36:37.439Z,101709.34
2022-12-04T14:39:11.690Z,101708.44
2022-12-04T14:41:38.765Z,101712.09
2022-12-04T14:44:05.487Z,101715.84
2022-12-04T14:46:31.883Z,101711.50
2022-12-04T14:49:20.241Z,101715.28
2022-12-04T14:51:59.655Z,101713.72
2022-12-04T14:54:39.194Z,101711.09
2022-12-04T14:57:42.635Z,101706.13
2022-12-04T15:00:23.302Z,101703.41
2022-12-04T15:02:59.573Z,101708.47
2022-12-04T15:05:31.269Z,101696.06
2022-12-04T15:08:04.953Z,101703.03
2022-12-04T15:10:52.590Z,101706.56
2022-12-04T15:13:30.219Z,101705.28
2022-12-04T15:15:57.437Z,101703.09
2022-12-04T15:18:24.162Z,101706.34
2022-12-04T15:20:53.262Z,101707.91
2022-12-04T15:23:30.914Z,101719.66
2022-12-04T15:26:01.860Z,101715.22
2022-12-04T15:28:33.258Z,101723.88
2022-12-04T15:31:02.839Z,101713.34
2022-12-04T15:41:03.098Z,101713.78
2022-12-04T15:43:32.096Z,101700.94
2022-12-04T15:45:59.244Z,101708.41
2022-12-04T15:48:31.019Z,101706.59
2022-12-04T15:51:00.702Z,101702.56
2022-12-04T15:53:31.078Z,101710.63
2022-12-04T15:56:02.391Z,101712.34
2022-12-04T15:58:34.790Z,101716.69
2022-12-04T16:01:05.092Z,101709.88
2022-12-04T16:03:37.681Z,101703.84
2022-12-04T16:06:23.814Z,101700.41
2022-12-04T16:08:57.862Z,101700.34
2022-12-04T16:11:31.218Z,101690.19
2022-12-04T16:14:14.860Z,101697.94
2022-12-04T16:16:51.746Z,101697.28
2022-12-04T16:19:29.120Z,101689.41
2022-12-04T16:21:55.982Z,101686.31
2022-12-04T16:24:22.838Z,101676.94
2022-12-04T16:26:55.913Z,101686.41
2022-12-04T16:29:23.431Z,101676.09
2022-12-04T16:31:50.551Z,101680.91
2022-12-04T16:34:18.816Z,101674.06
2022-12-04T16:36:45.323Z,101680.13
2022-12-04T16:39:11.734Z,101672.69
2022-12-04T16:41:38.932Z,101667.66
2022-12-04T16:44:12.695Z,101665.88
2022-12-04T16:46:39.225Z,101665.63
2022-12-04T16:49:07.627Z,101666.94
2022-12-04T16:51:37.324Z,101668.72
2022-12-04T16:54:03.739Z,101671.78
2022-12-04T16:56:30.129Z,101674.72
2022-12-04T16:58:56.540Z,101674.28
2022-12-04T17:01:36.394Z,101677.41
2022-12-04T17:04:03.122Z,101672.19
2022-12-04T17:06:31.073Z,101671.38
2022-12-04T17:08:57.514Z,101674.88
2022-12-04T17:11:23.919Z,101674.38
2022-12-04T17:13:50.544Z,101685.91
2022-12-04T17:16:19.635Z,101685.50
2022-12-04T17:18:46.751Z,101677.00
2022-12-04T17:21:14.134Z,101672.84
2022-12-04T17:23:41.470Z,101686.16
2022-12-04T17:26:11.200Z,101685.44
2022-12-04T17:28:38.490Z,101695.16
2022-12-04T17:31:16.790Z,101684.44
2022-12-04T17:33:44.388Z,101699.44
2022-12-04T17:36:12.799Z,101690.19
2022-12-04T17:38:41.706Z,101706.34
2022-12-04T17:41:10.202Z,101705.91
2022-12-04T17:43:36.805Z,101707.81
2022-12-04T17:46:12.380Z,101701.00
2022-12-04T17:48:38.907Z,101709.44
2022-12-04T17:51:10.110Z,101711.69
2022-12-04T17:53:38.025Z,101719.28
2022-12-04T17:56:06.810Z,101713.41
2022-12-04T17:58:35.260Z,101713.53
2022-12-04T18:01:06.994Z,101714.53
2022-12-04T18:03:34.537Z,101718.00
2022-12-04T18:06:01.598Z,101724.19
2022-12-04T18:08:31.070Z,101728.47
2022-12-04T18:10:57.645Z,101730.84
2022-12-04T18:13:24.245Z,101732.56
2022-12-04T18:15:50.741Z,101730.00
2022-12-04T18:18:17.308Z,101735.19
2022-12-04T18:20:43.741Z,101740.56
2022-12-04T18:23:10.935Z,101743.25
2022-12-04T18:25:37.488Z,101739.38
2022-12-04T18:28:04.029Z,101747.91
2022-12-04T18:30:32.004Z,101737.75
2022-12-04T18:32:58.979Z,101741.31
2022-12-04T18:35:25.467Z,101743.19
2022-12-04T18:37:52.107Z,101757.00
2022-12-04T18:40:18.543Z,101750.06
2022-12-04T18:42:44.959Z,101750.72
2022-12-04T18:45:12.337Z,101751.88
2022-12-04T18:47:38.807Z,101756.09
2022-12-04T18:50:05.740Z,101743.94
2022-12-04T18:52:35.679Z,101755.31
2022-12-04T18:55:02.202Z,101749.16
2022-12-04T18:57:31.371Z,101752.66
2022-12-04T18:59:59.159Z,101749.78
2022-12-04T19:02:25.855Z,101747.41
2022-12-04T19:04:52.457Z,101747.41
2022-12-04T19:07:19.041Z,101745.66
2022-12-04T19:10:10.369Z,101757.13
2022-12-04T19:12:32.077Z,101753.13
2022-12-04T19:14:58.529Z,101763.88
2022-12-04T19:17:24.966Z,101759.63
2022-12-04T19:19:51.410Z,101762.84
2022-12-04T19:22:18.179Z,101757.06
2022-12-04T19:24:44.667Z,101757.13
2022-12-04T19:27:11.954Z,101765.41
2022-12-04T19:29:43.298Z,101756.66
2022-12-04T19:32:10.907Z,101754.03
2022-12-04T19:34:38.066Z,101749.63
2022-12-04T19:37:04.662Z,101750.72
2022-12-04T19:39:31.151Z,101752.66
2022-12-04T19:41:57.653Z,101761.22
2022-12-04T19:44:47.887Z,101752.66
2022-12-04T19:47:11.427Z,101752.66
2022-12-04T19:49:38.155Z,101761.31
2022-12-04T19:52:05.362Z,101761.53
2022-12-04T19:54:32.310Z,101765.06
2022-12-04T19:56:58.706Z,101759.91
2022-12-04T19:59:25.131Z,101772.44
2022-12-04T20:01:52.539Z,101771.53
2022-12-04T20:04:19.190Z,101765.38
2022-12-04T20:06:46.495Z,101763.69
2022-12-04T20:09:16.279Z,101767.19
2022-12-04T20:11:42.725Z,101755.22
2022-12-04T20:14:10.007Z,101772.44
2022-12-04T20:16:38.223Z,101765.78
2022-12-04T20:19:07.223Z,101761.97
2022-12-04T20:21:34.204Z,101773.41
2022-12-04T20:24:03.115Z,101767.19
2022-12-04T20:26:34.265Z,101769.66
2022-12-04T20:29:02.120Z,101758.72
2022-12-04T20:31:32.216Z,101769.19
2022-12-04T20:34:00.840Z,101768.19
2022-12-04T20:36:28.675Z,101766.47
2022-12-04T20:39:00.867Z,101772.69
2022-12-04T20:41:29.201Z,101768.22
2022-12-04T20:43:56.032Z,101766.44
2022-12-04T20:46:25.458Z,101772.50
2022-12-04T20:48:53.547Z,101767.22
2022-12-04T20:51:25.948Z,101757.38
2022-12-04T20:53:56.157Z,101756.75
2022-12-04T20:56:23.259Z,101747.25
2022-12-04T20:58:49.737Z,101751.31
2022-12-04T21:01:18.397Z,101756.03
2022-12-04T21:03:46.160Z,101750.06
2022-12-04T21:06:19.712Z,101737.72
2022-12-04T21:08:53.156Z,101737.81
2022-12-04T21:11:28.625Z,101737.88
2022-12-04T21:14:15.175Z,101736.25
2022-12-04T21:16:42.265Z,101722.84
2022-12-04T21:19:11.463Z,101727.22
2022-12-04T21:21:38.215Z,101717.16
2022-12-04T21:24:07.063Z,101721.56
2022-12-04T21:26:34.230Z,101719.28
2022-12-04T21:29:01.646Z,101718.53
2022-12-04T21:31:30.270Z,101721.09
2022-12-04T21:34:01.275Z,101722.09
2022-12-04T21:36:28.570Z,101724.81
2022-12-04T21:38:55.133Z,101723.78
2022-12-04T21:41:40.666Z,101732.97
2022-12-04T21:44:13.051Z,101719.47
2022-12-04T21:46:39.700Z,101728.97
2022-12-04T21:49:06.424Z,101737.59
2022-12-04T21:51:56.257Z,101735.16
2022-12-04T21:54:20.334Z,101737.72
2022-12-04T21:56:47.082Z,101725.50
2022-12-04T21:59:13.528Z,101725.63
2022-12-04T22:01:40.646Z,101727.31
2022-12-04T22:04:07.898Z,101722.72
2022-12-04T22:06:36.184Z,101718.59
2022-12-04T22:09:05.998Z,101712.59
2022-12-04T22:11:32.722Z,101714.22
2022-12-04T22:13:59.237Z,101714.06
2022-12-04T22:16:30.390Z,101713.06
2022-12-04T22:18:58.848Z,101701.22
2022-12-04T22:21:26.377Z,101716.13
2022-12-04T22:23:55.597Z,101712.72
2022-12-04T22:26:22.040Z,101721.84
2022-12-04T22:28:48.555Z,101710.00
2022-12-04T22:31:19.405Z,101721.09
2022-12-04T22:33:52.206Z,101717.69
2022-12-04T22:36:21.635Z,101704.41
2022-12-04T22:39:08.052Z,101707.94
2022-12-04T22:41:35.169Z,101711.59
2022-12-04T22:44:01.604Z,101707.13
2022-12-04T22:46:28.202Z,101697.59
2022-12-04T22:48:54.665Z,101684.59
2022-12-04T22:51:22.215Z,101703.69
2022-12-04T22:53:54.405Z,101706.28
2022-12-04T22:56:26.245Z,101749.34
2022-12-04T22:58:53.907Z,101741.47
2022-12-04T23:01:23.468Z,101745.72
2022-12-04T23:03:51.255Z,101755.13
2022-12-04T23:06:19.538Z,101748.06
2022-12-04T23:08:46.802Z,101742.25
2022-12-04T23:11:18.082Z,101742.41
2022-12-04T23:13:53.206Z,101738.03
2022-12-04T23:16:21.322Z,101743.09
2022-12-04T23:18:48.583Z,101731.47
2022-12-04T23:21:16.474Z,101719.53
2022-12-04T23:23:44.774Z,101714.25
2022-12-04T23:26:12.688Z,101715.06
2022-12-04T23:28:39.764Z,101726.50
2022-12-04T23:31:06.317Z,101715.06
2022-12-04T23:33:33.550Z,101726.50
2022-12-04T23:36:02.644Z,101711.34
2022-12-04T23:38:30.600Z,101709.00
2022-12-04T23:41:04.556Z,101715.41
2022-12-04T23:43:32.285Z,101707.31
2022-12-04T23:45:58.930Z,101717.84
2022-12-04T23:48:25.995Z,101712.81
2022-12-04T23:50:53.481Z,101720.47
2022-12-04T23:53:21.074Z,101701.97
2022-12-04T23:56:26.933Z,101709.81
2022-12-04T23:58:55.953Z,101711.44
